Terminal Aerodrome Forecast
Issued by NWS

Home | Current Version | Previous Version | Text Only | Print | Product List | Glossary On
Versions: 1 2 3 4 5 6 7 8 9 10 11 12 13 14 15 16 17 18
000
FTUS42 KFFC 250520
TAFPDK
TAF
KPDK 250520Z 2506/2606 00000KT 6SM BR SCT250
      TEMPO 2509/2513 4SM BR
     FM251300 25003KT P6SM FEW025 BKN250
     FM251500 27008KT P6SM SCT120 OVC180
     FM260300 31007KT P6SM SKC=

USA.gov is the U.S. government's official web portal to all federal, state and local government web resources and services.